Time;durP1;ratioP1;P1;durP2;ratioP2;P2;SDS_P1;SDS_P2;PMS_P1;PMS_P2;Temp;Humidity;BMP_temperature;BMP_pressure;BME280_temperature;BME280_humidity;BME280_pressure;Samples;Min_cycle;Max_cycle;Signal;HPM_P1;HPM_P2
2022/06/19 00:00:46;;;;;;;5.55;1.85;;;14.70;99.90;;;;;;5055650;28;20040;-69
2022/06/19 00:03:17;;;;;;;7.13;1.75;;;14.90;99.90;;;;;;5040215;28;20048;-69
2022/06/19 00:05:43;;;;;;;11.38;2.30;;;15.00;99.90;;;;;;5061194;28;20048;-69
2022/06/19 00:08:09;;;;;;;7.68;1.60;;;14.80;99.90;;;;;;5042263;28;20033;-69
2022/06/19 00:10:35;;;;;;;9.18;1.42;;;14.60;99.90;;;;;;5057949;28;20025;-69
2022/06/19 00:13:00;;;;;;;7.70;1.60;;;14.80;99.90;;;;;;5036557;28;20044;-69
2022/06/19 00:15:26;;;;;;;6.38;1.40;;;14.70;99.90;;;;;;5053575;28;20033;-68
2022/06/19 00:17:51;;;;;;;11.07;2.42;;;14.90;99.90;;;;;;5035841;28;20033;-69
2022/06/19 00:20:17;;;;;;;7.78;2.05;;;14.80;99.90;;;;;;5057757;28;20487;-69
2022/06/19 00:22:43;;;;;;;7.95;2.15;;;15.40;99.90;;;;;;5058180;28;20041;-69
2022/06/19 00:25:09;;;;;;;10.07;1.83;;;14.70;99.90;;;;;;5058489;28;20033;-69
2022/06/19 00:27:41;;;;;;;10.38;2.05;;;14.80;99.90;;;;;;5035622;28;20045;-69
2022/06/19 00:30:09;;;;;;;10.07;2.10;;;15.00;99.90;;;;;;5035111;28;20491;-69
2022/06/19 00:32:35;;;;;;;7.22;1.85;;;14.70;99.90;;;;;;5034012;28;20112;-68
2022/06/19 00:35:01;;;;;;;9.20;1.75;;;14.90;99.90;;;;;;5035996;28;20522;-69
2022/06/19 00:37:27;;;;;;;13.05;1.75;;;14.80;99.90;;;;;;5036805;28;20130;-69
2022/06/19 00:39:53;;;;;;;11.40;2.00;;;14.90;99.90;;;;;;5033334;28;20037;-68
2022/06/19 00:42:18;;;;;;;9.60;2.30;;;15.50;99.90;;;;;;5032067;28;20040;-68
2022/06/19 00:44:44;;;;;;;7.30;2.00;;;14.80;99.90;;;;;;5031596;28;20049;-69
2022/06/19 00:47:27;;;;;;;10.85;1.73;;;14.70;99.90;;;;;;5034000;28;20044;-67
2022/06/19 00:49:57;;;;;;;13.63;2.33;;;14.70;99.90;;;;;;5036016;28;20037;-69
2022/06/19 00:52:32;;;;;;;8.77;1.60;;;14.90;99.90;;;;;;5051717;28;20120;-68
2022/06/19 00:55:11;;;;;;;7.78;1.90;;;14.70;99.90;;;;;;5034411;28;20033;-68
2022/06/19 00:57:43;;;;;;;14.85;1.75;;;14.80;99.90;;;;;;5051590;28;20041;-67
2022/06/19 01:00:15;;;;;;;11.75;2.83;;;14.90;99.90;;;;;;5016244;28;20115;-69
2022/06/19 01:02:43;;;;;;;9.55;1.90;;;16.10;99.90;;;;;;5034169;28;20120;-69
2022/06/19 01:05:14;;;;;;;11.38;2.88;;;14.90;99.90;;;;;;5033729;28;20048;-69
2022/06/19 01:07:42;;;;;;;13.02;2.63;;;14.90;99.90;;;;;;5034351;28;20522;-69
2022/06/19 01:10:08;;;;;;;13.85;3.67;;;14.90;99.90;;;;;;5034693;28;20033;-69
2022/06/19 01:12:34;;;;;;;12.63;2.33;;;15.00;99.90;;;;;;5017198;28;20138;-69
2022/06/19 01:15:04;;;;;;;13.55;2.20;;;15.20;99.90;;;;;;5031472;28;20040;-69
2022/06/19 01:17:32;;;;;;;7.60;2.05;;;15.10;99.90;;;;;;5031966;28;20041;-68
2022/06/19 01:20:01;;;;;;;13.40;2.75;;;15.00;99.90;;;;;;5029165;28;20909;-69
2022/06/19 01:22:29;;;;;;;15.25;2.75;;;15.00;99.90;;;;;;5031798;28;20044;-69
2022/06/19 01:25:03;;;;;;;18.45;3.10;;;14.90;99.90;;;;;;5052937;28;20045;-68
2022/06/19 01:30:16;;;;;;;15.05;3.03;;;14.80;99.90;;;;;;5031156;28;20052;-68
2022/06/19 01:32:44;;;;;;;16.35;3.47;;;15.20;99.90;;;;;;5035616;28;20120;-69
2022/06/19 01:35:11;;;;;;;17.63;2.35;;;14.70;99.90;;;;;;5034754;28;20037;-68
2022/06/19 01:37:39;;;;;;;15.93;2.47;;;14.70;99.90;;;;;;5033579;28;20177;-69
2022/06/19 01:40:22;;;;;;;15.95;2.47;;;14.90;99.90;;;;;;5034872;28;20051;-69
2022/06/19 01:42:48;;;;;;;13.07;2.58;;;14.70;99.90;;;;;;5035565;28;20040;-68
2022/06/19 01:45:15;;;;;;;16.85;2.97;;;14.80;99.90;;;;;;5019008;28;20077;-71
2022/06/19 01:47:41;;;;;;;16.33;2.35;;;15.00;99.90;;;;;;5016864;28;20048;-71
2022/06/19 01:50:14;;;;;;;14.55;3.17;;;15.10;99.90;;;;;;5052694;28;20033;-71
2022/06/19 01:52:40;;;;;;;14.45;2.78;;;14.70;99.90;;;;;;5035339;28;20052;-71
2022/06/19 01:55:15;;;;;;;14.68;2.17;;;14.60;99.90;;;;;;5032398;28;20037;-71
2022/06/19 01:57:44;;;;;;;19.85;2.22;;;14.90;99.90;;;;;;5031402;28;20076;-70
2022/06/19 02:00:14;;;;;;;9.32;2.35;;;14.70;99.90;;;;;;5034339;28;20127;-69
2022/06/19 02:02:43;;;;;;;19.05;3.40;;;14.80;99.90;;;;;;5030899;28;20140;-70
2022/06/19 02:05:09;;;;;;;15.95;2.50;;;14.60;99.90;;;;;;5031872;28;20036;-69
2022/06/19 02:07:35;;;;;;;15.70;3.20;;;14.70;99.90;;;;;;5033182;28;20131;-69
2022/06/19 02:10:01;;;;;;;14.65;3.67;;;14.70;99.90;;;;;;5048850;28;20069;-69
2022/06/19 02:12:30;;;;;;;13.50;2.95;;;15.40;99.90;;;;;;5029522;28;20051;-69
2022/06/19 02:14:56;;;;;;;19.23;2.63;;;14.50;99.90;;;;;;5035111;28;20025;-69
2022/06/19 02:17:28;;;;;;;8.18;2.00;;;14.70;99.90;;;;;;5035121;28;20090;-69
2022/06/19 02:19:54;;;;;;;17.93;3.00;;;14.60;99.90;;;;;;5049732;28;20538;-69
2022/06/19 02:22:20;;;;;;;14.10;3.03;;;14.70;99.90;;;;;;5049758;28;20044;-69
2022/06/19 02:24:46;;;;;;;17.48;2.60;;;14.50;99.90;;;;;;5032541;28;20047;-69
2022/06/19 02:27:12;;;;;;;11.55;3.20;;;14.70;99.90;;;;;;5047711;28;20037;-69
2022/06/19 02:29:40;;;;;;;11.82;2.30;;;14.50;99.90;;;;;;5048762;28;20043;-69
2022/06/19 02:32:20;;;;;;;15.75;3.58;;;14.70;99.90;;;;;;5049600;28;20033;-69
2022/06/19 02:34:45;;;;;;;12.00;2.13;;;14.50;99.90;;;;;;5031103;28;20040;-69
2022/06/19 02:37:23;;;;;;;12.10;2.60;;;15.00;99.90;;;;;;5017251;28;20040;-69
2022/06/19 02:40:31;;;;;;;16.08;2.60;;;14.50;99.90;;;;;;5029813;28;20125;-68
2022/06/19 02:42:57;;;;;;;15.27;2.45;;;14.70;99.90;;;;;;4954676;28;20038;-69
2022/06/19 02:45:27;;;;;;;13.00;2.30;;;14.50;99.90;;;;;;4970150;28;20049;-69
2022/06/19 02:47:55;;;;;;;14.07;2.55;;;14.60;99.90;;;;;;4977012;28;20499;-69
2022/06/19 02:50:25;;;;;;;19.45;2.72;;;14.60;99.90;;;;;;5033442;28;20041;-69
2022/06/19 02:52:52;;;;;;;16.48;2.40;;;14.80;99.90;;;;;;5048739;28;20044;-69
2022/06/19 02:55:18;;;;;;;19.45;4.22;;;14.60;99.90;;;;;;5031439;28;20388;-69
2022/06/19 02:57:45;;;;;;;13.07;3.38;;;14.50;99.90;;;;;;5033574;28;20413;-69
2022/06/19 03:00:18;;;;;;;15.93;2.80;;;14.70;99.90;;;;;;5032254;28;20071;-69
2022/06/19 03:02:44;;;;;;;13.07;2.65;;;14.50;99.90;;;;;;5016671;28;20067;-70
2022/06/19 03:05:23;;;;;;;16.55;2.67;;;15.00;99.90;;;;;;5051316;28;20033;-69
2022/06/19 03:07:48;;;;;;;13.77;2.83;;;14.80;99.90;;;;;;5032449;28;20049;-70
2022/06/19 03:10:15;;;;;;;11.05;2.30;;;15.30;99.90;;;;;;5049272;28;20041;-70
2022/06/19 03:12:41;;;;;;;17.70;2.60;;;14.90;99.90;;;;;;5014575;28;20118;-69
2022/06/19 03:15:08;;;;;;;14.68;2.78;;;14.90;99.90;;;;;;5049465;28;20037;-70
2022/06/19 03:17:34;;;;;;;21.67;3.25;;;14.90;99.90;;;;;;5047032;28;20055;-70
2022/06/19 03:19:59;;;;;;;14.68;2.80;;;14.90;99.90;;;;;;5016110;28;20129;-70
2022/06/19 03:22:25;;;;;;;15.15;2.83;;;14.80;99.90;;;;;;5049794;28;20076;-70
2022/06/19 03:24:51;;;;;;;13.20;2.30;;;14.90;99.90;;;;;;5033296;28;20040;-69
2022/06/19 03:27:17;;;;;;;14.60;2.42;;;14.70;99.90;;;;;;5031879;28;20042;-69
2022/06/19 03:29:43;;;;;;;10.43;2.40;;;14.40;99.90;;;;;;5049160;28;20111;-70
2022/06/19 03:32:10;;;;;;;13.95;2.90;;;14.20;99.90;;;;;;5030894;28;20120;-70
2022/06/19 03:34:36;;;;;;;13.30;2.50;;;14.80;99.90;;;;;;5031432;28;20041;-70
2022/06/19 03:37:02;;;;;;;18.27;2.38;;;14.30;99.90;;;;;;5029383;28;20047;-70
2022/06/19 03:39:27;;;;;;;13.63;2.10;;;14.20;99.90;;;;;;5031933;28;20077;-70
2022/06/19 03:41:53;;;;;;;14.60;2.88;;;14.30;99.90;;;;;;5049684;28;20482;-70
2022/06/19 03:44:19;;;;;;;13.38;2.33;;;14.00;99.90;;;;;;5050768;28;20102;-70
2022/06/19 03:46:44;;;;;;;26.08;3.83;;;13.90;99.90;;;;;;5047690;28;20053;-70
2022/06/19 03:49:10;;;;;;;13.68;2.70;;;13.90;99.90;;;;;;5032900;28;20454;-70
2022/06/19 03:51:36;;;;;;;19.25;2.55;;;14.00;99.90;;;;;;5032495;28;20041;-71
2022/06/19 03:54:02;;;;;;;14.93;2.25;;;13.70;99.90;;;;;;5049173;28;20082;-70
2022/06/19 03:56:31;;;;;;;13.27;2.50;;;13.60;99.90;;;;;;5015989;28;20045;-70
2022/06/19 03:58:57;;;;;;;12.73;2.33;;;13.60;99.90;;;;;;5048717;28;20640;-70
2022/06/19 04:01:26;;;;;;;13.82;2.83;;;13.40;99.90;;;;;;5048542;28;20041;-70
2022/06/19 04:03:54;;;;;;;18.50;2.42;;;13.40;99.90;;;;;;5017025;28;20123;-70
2022/06/19 04:06:21;;;;;;;16.33;2.63;;;13.50;99.90;;;;;;5049951;28;20100;-70
2022/06/19 04:08:47;;;;;;;14.55;2.67;;;13.00;99.90;;;;;;5033107;28;20478;-70
2022/06/19 04:11:14;;;;;;;19.15;3.00;;;13.20;99.90;;;;;;5046877;28;20033;-70
2022/06/19 04:13:40;;;;;;;11.48;2.50;;;13.00;99.90;;;;;;5048829;28;20082;-68
2022/06/19 04:16:15;;;;;;;15.27;3.08;;;12.90;99.90;;;;;;5030305;28;20414;-70
2022/06/19 04:18:40;;;;;;;9.55;2.50;;;12.70;99.90;;;;;;5032639;28;20056;-69
2022/06/19 04:21:15;;;;;;;15.00;3.20;;;12.70;99.90;;;;;;5031391;28;20033;-70
2022/06/19 04:23:44;;;;;;;16.55;3.63;;;12.80;99.90;;;;;;5030201;28;20045;-70
2022/06/19 04:26:11;;;;;;;14.82;2.67;;;12.80;99.90;;;;;;5031343;28;20149;-70
2022/06/19 04:28:37;;;;;;;18.63;3.42;;;12.90;99.90;;;;;;5049287;28;20047;-71
2022/06/19 04:31:03;;;;;;;9.52;3.40;;;13.20;99.90;;;;;;5031457;28;20033;-70
2022/06/19 04:33:29;;;;;;;8.93;2.55;;;13.20;99.90;;;;;;5051046;28;20044;-70
2022/06/19 04:35:54;;;;;;;21.05;3.60;;;13.20;99.90;;;;;;5031421;28;20045;-68
2022/06/19 04:38:20;;;;;;;8.27;2.15;;;13.20;99.90;;;;;;5036578;28;20110;-70
2022/06/19 04:40:45;;;;;;;15.65;3.38;;;12.80;99.90;;;;;;5033775;28;20445;-71
2022/06/19 04:43:12;;;;;;;13.73;2.42;;;12.90;99.90;;;;;;5052686;28;20041;-70
2022/06/19 04:45:38;;;;;;;17.52;2.85;;;12.70;99.90;;;;;;5034994;28;20040;-69
2022/06/19 04:48:08;;;;;;;11.88;2.80;;;13.00;99.90;;;;;;5033580;28;20422;-70
2022/06/19 04:50:34;;;;;;;11.52;2.38;;;12.80;99.90;;;;;;5033658;28;20060;-70
2022/06/19 04:52:59;;;;;;;10.13;1.98;;;12.50;99.90;;;;;;5054601;28;20033;-70
2022/06/19 04:55:25;;;;;;;16.10;2.80;;;12.50;99.90;;;;;;5034686;28;20562;-70
2022/06/19 04:57:51;;;;;;;7.65;2.10;;;;;;;;;;5035629;28;20029;-70
2022/06/19 05:00:19;;;;;;;12.30;1.85;;;12.80;99.90;;;;;;5033114;28;20125;-70
2022/06/19 05:02:49;;;;;;;9.70;1.70;;;12.90;99.90;;;;;;5051373;28;20037;-70
2022/06/19 05:05:17;;;;;;;10.93;2.53;;;12.80;99.90;;;;;;5018722;28;20032;-71
2022/06/19 05:07:43;;;;;;;10.10;1.92;;;12.70;99.90;;;;;;5018681;28;20056;-70
2022/06/19 05:10:10;;;;;;;14.50;2.28;;;12.70;99.90;;;;;;5034322;28;20037;-69
2022/06/19 05:12:36;;;;;;;13.90;2.47;;;;;;;;;;5035240;28;20517;-69
2022/06/19 05:15:02;;;;;;;7.40;2.00;;;12.80;99.90;;;;;;5052189;28;20072;-69
2022/06/19 05:17:27;;;;;;;10.80;1.77;;;12.60;99.90;;;;;;5034978;28;20079;-70
2022/06/19 05:19:53;;;;;;;13.30;2.15;;;12.30;99.90;;;;;;5033146;28;20491;-68
2022/06/19 05:22:18;;;;;;;9.25;1.90;;;12.70;99.90;;;;;;5033211;28;20052;-68
2022/06/19 05:24:44;;;;;;;14.85;2.35;;;12.50;99.90;;;;;;5036205;28;20051;-68
2022/06/19 05:27:11;;;;;;;9.77;2.38;;;12.50;99.90;;;;;;5034862;28;20850;-68
2022/06/19 05:29:37;;;;;;;21.27;2.70;;;12.30;99.90;;;;;;5035113;28;20037;-69
2022/06/19 05:32:04;;;;;;;12.90;2.45;;;12.40;99.90;;;;;;5035990;28;20407;-68
2022/06/19 05:34:31;;;;;;;12.32;2.25;;;12.40;99.90;;;;;;5031705;28;20033;-68
2022/06/19 05:36:57;;;;;;;21.60;2.97;;;;;;;;;;5017458;28;20132;-71
2022/06/19 05:39:23;;;;;;;13.07;2.20;;;;;;;;;;5031187;28;20135;-71
2022/06/19 05:41:49;;;;;;;16.58;2.40;;;;;;;;;;5045357;23;20045;-68
2022/06/19 05:44:15;;;;;;;16.27;2.47;;;12.50;99.90;;;;;;5048113;28;20068;-68
2022/06/19 05:46:41;;;;;;;15.02;2.30;;;12.60;99.90;;;;;;5050442;28;20045;-68
2022/06/19 05:49:08;;;;;;;13.10;2.70;;;12.50;99.90;;;;;;5050875;28;20076;-68
2022/06/19 05:51:34;;;;;;;13.30;2.63;;;;;;;;;;5052072;28;20045;-68
2022/06/19 05:54:00;;;;;;;12.90;2.45;;;;;;;;;;5052015;28;20052;-68
2022/06/19 05:56:27;;;;;;;16.35;2.63;;;12.60;99.90;;;;;;5052904;28;20047;-69
2022/06/19 05:58:54;;;;;;;13.50;2.75;;;12.50;99.90;;;;;;5052323;28;20090;-67
2022/06/19 06:01:20;;;;;;;12.18;2.03;;;;;;;;;;5049972;28;20044;-68
2022/06/19 06:03:46;;;;;;;11.25;2.15;;;;;;;;;;5051831;28;20055;-68
2022/06/19 06:06:23;;;;;;;14.23;2.20;;;12.60;99.90;;;;;;5051841;28;20063;-69
2022/06/19 06:08:49;;;;;;;21.80;3.33;;;12.80;99.90;;;;;;5051366;28;20049;-68
2022/06/19 06:11:16;;;;;;;10.43;1.83;;;12.60;99.90;;;;;;5050749;28;20033;-69
2022/06/19 06:13:42;;;;;;;10.57;1.60;;;;;;;;;;5046701;28;20482;-68
2022/06/19 06:16:10;;;;;;;6.70;1.63;;;12.90;99.90;;;;;;5050186;28;20072;-69
2022/06/19 06:18:35;;;;;;;9.27;1.50;;;12.90;99.90;;;;;;5049410;28;20570;-69
2022/06/19 06:21:06;;;;;;;10.27;2.55;;;13.00;99.90;;;;;;5048675;28;20129;-68
2022/06/19 06:23:33;;;;;;;13.23;2.10;;;;;;;;;;5051412;28;20498;-66
2022/06/19 06:26:01;;;;;;;7.78;2.17;;;13.10;99.90;;;;;;5064972;28;20095;-68
2022/06/19 06:28:28;;;;;;;14.23;3.03;;;13.20;99.90;;;;;;5049382;28;20045;-68
2022/06/19 06:30:54;;;;;;;11.05;2.03;;;;;;;;;;5047209;28;20043;-68
2022/06/19 06:33:19;;;;;;;14.05;2.17;;;13.10;99.90;;;;;;5050896;28;20128;-68
2022/06/19 06:35:46;;;;;;;18.50;2.00;;;13.40;99.90;;;;;;5050138;28;20111;-68
2022/06/19 06:38:12;;;;;;;13.68;2.63;;;13.20;99.90;;;;;;5047320;28;20036;-68
2022/06/19 06:40:37;;;;;;;10.60;2.03;;;13.40;99.90;;;;;;5046755;28;20049;-69
2022/06/19 06:43:03;;;;;;;9.95;2.00;;;13.10;99.90;;;;;;5051825;28;20048;-68
2022/06/19 06:45:29;;;;;;;9.02;1.85;;;;;;;;;;5048367;28;20041;-69
2022/06/19 06:47:55;;;;;;;13.48;2.20;;;;;;;;;;5047949;28;20455;-69
2022/06/19 06:50:21;;;;;;;14.90;1.92;;;;;;;;;;5046358;28;20091;-69
2022/06/19 06:52:47;;;;;;;14.45;2.45;;;;;;;;;;5049851;28;20509;-70
2022/06/19 06:55:14;;;;;;;7.40;1.73;;;13.70;99.90;;;;;;5032993;28;20033;-67
2022/06/19 06:57:40;;;;;;;13.30;2.10;;;;;;;;;;5047738;28;20126;-68
2022/06/19 07:00:09;;;;;;;8.27;1.55;;;13.70;99.90;;;;;;5050307;28;20084;-69
2022/06/19 07:02:35;;;;;;;12.45;2.58;;;;;;;;;;5050705;28;20106;-69
2022/06/19 07:05:00;;;;;;;14.27;2.20;;;13.30;99.90;;;;;;5049868;28;20131;-67
2022/06/19 07:07:26;;;;;;;13.70;2.10;;;13.40;99.90;;;;;;5052265;28;20037;-68
2022/06/19 07:09:51;;;;;;;12.55;1.77;;;13.30;99.90;;;;;;5067609;28;20032;-69
2022/06/19 07:12:17;;;;;;;10.13;2.08;;;13.30;99.90;;;;;;5066632;28;20124;-69
2022/06/19 07:14:43;;;;;;;9.85;1.67;;;;;;;;;;5069689;28;20400;-69
2022/06/19 07:17:08;;;;;;;12.85;2.00;;;13.50;99.90;;;;;;5066549;28;20071;-71
2022/06/19 07:19:34;;;;;;;8.80;1.88;;;;;;;;;;5067553;28;20041;-68
2022/06/19 07:22:00;;;;;;;9.70;2.15;;;13.60;99.90;;;;;;5067613;28;20051;-68
2022/06/19 07:24:26;;;;;;;9.02;1.88;;;;;;;;;;5069209;28;20076;-69
2022/06/19 07:26:52;;;;;;;15.50;2.67;;;13.70;99.90;;;;;;5069148;28;20044;-69
2022/06/19 07:29:18;;;;;;;10.02;1.85;;;13.50;99.90;;;;;;5056932;28;20063;-68
2022/06/19 07:31:44;;;;;;;14.57;2.17;;;13.50;99.90;;;;;;5048270;28;20490;-69
2022/06/19 07:34:10;;;;;;;13.43;2.00;;;13.60;99.90;;;;;;5046371;28;20040;-69
2022/06/19 07:36:35;;;;;;;10.20;1.52;;;13.50;99.90;;;;;;5048194;28;20075;-68
2022/06/19 07:39:02;;;;;;;10.60;1.83;;;13.60;99.90;;;;;;5045937;28;20037;-68
2022/06/19 07:41:28;;;;;;;14.93;2.97;;;;;;;;;;5047753;28;20116;-69
2022/06/19 07:43:56;;;;;;;9.82;1.50;;;;;;;;;;5040431;28;20821;-68
2022/06/19 07:46:23;;;;;;;11.27;1.90;;;13.80;99.90;;;;;;5058250;28;20049;-68
2022/06/19 07:51:34;;;;;;;9.98;1.85;;;;;;;;;;5046141;28;20128;-68
2022/06/19 07:54:01;;;;;;;12.82;1.90;;;13.50;99.90;;;;;;5051781;28;20047;-69
2022/06/19 07:56:27;;;;;;;8.63;1.80;;;;;;;;;;5044755;28;20037;-68
2022/06/19 07:58:52;;;;;;;12.50;2.85;;;13.80;99.90;;;;;;5026703;28;20049;-67
2022/06/19 08:01:18;;;;;;;12.38;1.98;;;;;;;;;;5043662;28;20037;-68
2022/06/19 08:03:46;;;;;;;10.93;1.98;;;;;;;;;;5040665;28;20513;-68
2022/06/19 08:06:13;;;;;;;10.85;2.38;;;13.80;99.90;;;;;;5043462;28;20048;-68
2022/06/19 08:08:39;;;;;;;13.95;2.53;;;;;;;;;;5043224;28;20045;-70
2022/06/19 08:11:05;;;;;;;10.68;2.10;;;;;;;;;;5046936;28;20041;-69
2022/06/19 08:13:33;;;;;;;7.90;2.10;;;14.10;99.90;;;;;;5049443;28;20121;-69
2022/06/19 08:16:02;;;;;;;11.27;2.25;;;14.10;99.90;;;;;;5045372;28;20048;-69
2022/06/19 08:18:28;;;;;;;8.32;2.78;;;;;;;;;;5050461;28;20048;-69
2022/06/19 08:20:54;;;;;;;10.45;2.83;;;;;;;;;;5047932;28;20067;-69
2022/06/19 08:23:20;;;;;;;6.00;1.70;;;14.10;99.90;;;;;;5051224;28;20052;-69
2022/06/19 08:25:47;;;;;;;14.70;3.15;;;14.20;99.90;;;;;;5034580;28;20124;-69
2022/06/19 08:28:15;;;;;;;9.15;2.70;;;14.10;99.90;;;;;;5047169;28;20043;-67
2022/06/19 08:30:43;;;;;;;12.15;2.63;;;14.10;99.90;;;;;;5044082;28;20143;-68
2022/06/19 08:33:09;;;;;;;5.93;1.65;;;;;;;;;;5049752;28;20144;-68
2022/06/19 08:35:39;;;;;;;12.80;1.65;;;13.80;99.90;;;;;;5045907;28;20040;-71
2022/06/19 08:38:08;;;;;;;8.02;1.60;;;14.10;99.90;;;;;;5046995;28;20037;-68
2022/06/19 08:40:39;;;;;;;9.35;1.73;;;14.00;99.90;;;;;;5047786;28;20036;-69
2022/06/19 08:43:29;;;;;;;10.60;1.70;;;14.10;99.90;;;;;;5048003;28;20040;-69
2022/06/19 08:46:34;;;;;;;6.43;1.35;;;14.20;99.90;;;;;;5046915;28;20115;-69
2022/06/19 08:49:00;;;;;;;8.73;1.55;;;;;;;;;;5040132;28;20045;-67
2022/06/19 08:52:03;;;;;;;11.57;1.98;;;14.40;99.90;;;;;;5043383;28;20037;-68
2022/06/19 08:54:38;;;;;;;4.93;1.15;;;14.40;99.90;;;;;;5043712;28;20121;-70
2022/06/19 08:57:33;;;;;;;11.27;1.52;;;14.60;99.90;;;;;;5038209;28;20041;-69
2022/06/19 09:00:17;;;;;;;6.30;1.95;;;14.40;99.90;;;;;;5043432;28;20041;-69
2022/06/19 09:02:56;;;;;;;5.90;1.10;;;15.00;99.90;;;;;;5047286;28;20040;-68
2022/06/19 09:05:46;;;;;;;7.72;1.20;;;15.60;99.90;;;;;;5030178;28;20041;-68
2022/06/19 09:08:25;;;;;;;4.22;1.10;;;15.00;99.90;;;;;;5046006;28;20052;-69
2022/06/19 09:11:12;;;;;;;5.20;1.15;;;15.10;99.90;;;;;;5046171;28;20049;-69
2022/06/19 09:13:38;;;;;;;5.72;1.70;;;;;;;;;;5044410;28;20048;-70
2022/06/19 09:16:17;;;;;;;5.50;1.15;;;14.80;99.90;;;;;;5046837;28;20041;-69
2022/06/19 09:18:45;;;;;;;7.40;1.20;;;15.10;99.90;;;;;;5047314;28;20476;-67
2022/06/19 09:21:30;;;;;;;9.63;1.65;;;15.30;99.90;;;;;;5047378;28;20037;-68
2022/06/19 09:24:08;;;;;;;6.43;1.45;;;15.10;99.90;;;;;;5045398;28;20048;-69
2022/06/19 09:26:44;;;;;;;4.85;1.30;;;15.30;99.90;;;;;;5045706;28;20040;-71
2022/06/19 09:29:18;;;;;;;6.80;1.02;;;15.10;99.90;;;;;;5042723;28;20041;-69
2022/06/19 09:32:00;;;;;;;9.35;1.20;;;14.80;99.90;;;;;;5046191;28;20471;-67
2022/06/19 09:34:36;;;;;;;5.20;1.50;;;15.10;99.90;;;;;;5047122;28;20091;-68
2022/06/19 09:37:28;;;;;;;6.07;1.10;;;15.00;99.90;;;;;;5044908;28;20299;-68
2022/06/19 09:39:56;;;;;;;3.65;1.17;;;15.10;99.90;;;;;;5046595;28;20071;-69
2022/06/19 09:42:22;;;;;;;6.05;1.65;;;15.10;99.90;;;;;;5043571;28;20048;-70
2022/06/19 09:44:59;;;;;;;3.38;1.13;;;14.90;99.90;;;;;;5045256;28;20045;-70
2022/06/19 09:47:40;;;;;;;15.35;9.90;;;15.30;99.90;;;;;;5041270;28;20099;-69
2022/06/19 09:50:26;;;;;;;5.90;2.67;;;15.60;99.90;;;;;;5043013;28;20116;-69
2022/06/19 09:53:12;;;;;;;15.07;5.38;;;15.60;99.90;;;;;;5048103;28;20068;-69
2022/06/19 09:55:43;;;;;;;8.38;3.15;;;15.90;99.90;;;;;;5043389;28;20072;-69
2022/06/19 09:58:17;;;;;;;5.97;5.43;;;15.90;99.90;;;;;;5045149;28;20503;-70
2022/06/19 10:00:46;;;;;;;6.63;1.85;;;16.30;99.90;;;;;;5043507;28;20040;-72
2022/06/19 10:03:23;;;;;;;3.78;1.23;;;16.30;99.90;;;;;;5046910;28;20431;-69
2022/06/19 10:06:02;;;;;;;5.20;2.53;;;16.50;99.90;;;;;;5046930;28;20076;-68
2022/06/19 10:09:01;;;;;;;6.18;3.47;;;17.70;99.90;;;;;;5047128;28;20070;-70
2022/06/19 10:11:33;;;;;;;6.90;1.50;;;16.30;99.90;;;;;;5047244;28;20037;-70
2022/06/19 10:14:05;;;;;;;6.68;2.70;;;16.50;99.90;;;;;;5048062;28;20056;-69
2022/06/19 10:16:37;;;;;;;2.70;0.77;;;15.90;99.90;;;;;;5035352;28;20104;-69
2022/06/19 10:19:17;;;;;;;4.72;1.00;;;16.10;99.90;;;;;;5051495;28;20045;-70
2022/06/19 10:22:14;;;;;;;1.73;0.75;;;16.40;99.90;;;;;;5032086;28;20037;-69
2022/06/19 10:24:42;;;;;;;3.67;1.33;;;16.70;99.90;;;;;;5051806;28;20048;-69
2022/06/19 10:27:25;;;;;;;3.17;1.50;;;16.90;99.90;;;;;;5050530;28;20067;-69
2022/06/19 10:29:54;;;;;;;4.00;1.23;;;17.10;99.90;;;;;;5045299;28;20390;-69
2022/06/19 10:32:35;;;;;;;6.18;1.23;;;17.40;99.90;;;;;;5035907;28;20171;-71
2022/06/19 10:35:30;;;;;;;2.75;1.00;;;17.20;99.90;;;;;;5038884;28;20040;-71
2022/06/19 10:38:31;;;;;;;2.63;0.80;;;17.10;99.90;;;;;;5063592;28;20041;-70
2022/06/19 10:44:24;;;;;;;2.63;1.10;;;17.20;99.90;;;;;;5050837;28;20145;-69
2022/06/19 10:47:07;;;;;;;3.40;1.17;;;16.90;99.90;;;;;;5069047;28;20048;-71
2022/06/19 10:49:44;;;;;;;3.33;0.73;;;16.60;99.90;;;;;;5069900;28;20047;-69
2022/06/19 10:52:22;;;;;;;3.38;1.30;;;16.50;99.90;;;;;;5070654;28;20553;-71
2022/06/19 10:55:13;;;;;;;4.47;1.10;;;16.50;99.90;;;;;;5067310;28;20041;-68
2022/06/19 10:57:41;;;;;;;3.63;0.90;;;16.60;99.90;;;;;;5051903;28;20147;-70
2022/06/19 11:00:08;;;;;;;4.88;1.27;;;16.60;99.90;;;;;;5051119;28;20410;-69
2022/06/19 11:05:35;;;;;;;3.88;0.95;;;16.80;99.90;;;;;;5043084;28;20053;-69
2022/06/19 11:08:01;;;;;;;5.45;1.15;;;16.10;99.90;;;;;;5031872;28;20088;-69
2022/06/19 11:10:41;;;;;;;3.42;0.90;;;16.20;99.90;;;;;;5049883;28;20439;-73
2022/06/19 11:13:07;;;;;;;7.20;1.48;;;15.70;99.90;;;;;;5056390;28;20089;-68
2022/06/19 11:15:47;;;;;;;5.82;1.73;;;16.00;99.90;;;;;;5049963;28;20036;-69
2022/06/19 11:18:22;;;;;;;3.88;1.08;;;16.30;99.90;;;;;;5051001;28;20044;-68
2022/06/19 11:21:01;;;;;;;4.65;1.52;;;16.20;99.90;;;;;;5050828;28;20128;-67
2022/06/19 11:23:37;;;;;;;4.85;1.20;;;16.10;99.90;;;;;;5050061;28;20487;-69
2022/06/19 11:26:12;;;;;;;4.00;0.95;;;15.90;99.90;;;;;;5052192;28;20037;-69
2022/06/19 11:29:17;;;;;;;9.20;2.40;;;15.90;99.90;;;;;;5049754;28;20124;-69
2022/06/19 11:32:04;;;;;;;9.52;2.20;;;16.00;99.90;;;;;;5049910;28;20114;-71
2022/06/19 11:34:43;;;;;;;7.07;2.63;;;16.10;99.90;;;;;;5033170;28;20045;-68
2022/06/19 11:37:10;;;;;;;8.50;1.52;;;16.10;99.90;;;;;;5058179;28;20076;-69
2022/06/19 11:39:40;;;;;;;9.65;2.85;;;16.10;99.90;;;;;;5046285;28;20072;-68
2022/06/19 11:42:20;;;;;;;5.95;1.88;;;16.10;99.90;;;;;;5046712;28;20044;-70
2022/06/19 11:45:11;;;;;;;12.07;1.65;;;16.10;99.90;;;;;;5047126;28;20059;-72
2022/06/19 11:47:45;;;;;;;5.88;1.80;;;16.10;99.90;;;;;;5042136;28;20068;-69
2022/06/19 11:50:14;;;;;;;6.05;1.25;;;15.90;99.90;;;;;;5059530;22;20093;-76
2022/06/19 11:53:02;;;;;;;5.95;1.50;;;16.00;99.90;;;;;;5059819;28;20698;-70
2022/06/19 11:55:32;;;;;;;6.70;1.17;;;15.80;99.90;;;;;;5077105;28;20120;-75
2022/06/19 11:58:30;;;;;;;5.32;1.23;;;15.60;99.90;;;;;;5095280;28;20096;-75
2022/06/19 12:01:15;;;;;;;3.65;1.00;;;15.90;99.90;;;;;;5061310;28;20057;-68
2022/06/19 12:04:02;;;;;;;6.22;1.48;;;15.80;99.90;;;;;;5075119;28;20051;-74
2022/06/19 12:06:42;;;;;;;3.88;1.15;;;16.20;99.90;;;;;;5088437;28;20394;-74
2022/06/19 12:09:33;;;;;;;7.93;1.70;;;16.60;99.90;;;;;;5094705;28;20214;-72
2022/06/19 12:12:10;;;;;;;3.67;1.17;;;17.10;99.90;;;;;;5093966;28;20040;-73
2022/06/19 12:14:55;;;;;;;3.80;1.27;;;17.00;99.90;;;;;;5090233;28;20040;-75
2022/06/19 12:17:32;;;;;;;2.75;1.20;;;17.30;99.90;;;;;;5093848;28;20040;-73
2022/06/19 12:20:07;;;;;;;4.80;1.13;;;17.90;99.90;;;;;;5076391;28;20092;-74
2022/06/19 12:22:46;;;;;;;6.38;1.42;;;17.90;99.90;;;;;;5077091;28;20040;-73
2022/06/19 12:25:33;;;;;;;4.95;1.10;;;18.00;99.90;;;;;;5093588;28;20494;-73
2022/06/19 12:28:11;;;;;;;5.55;1.30;;;18.20;99.90;;;;;;5094802;28;20504;-74
2022/06/19 12:30:48;;;;;;;4.65;1.25;;;17.20;99.90;;;;;;5079899;28;20498;-75
2022/06/19 12:33:23;;;;;;;3.13;1.13;;;16.60;99.90;;;;;;5089182;28;20072;-75
2022/06/19 12:35:49;;;;;;;7.60;1.63;;;17.30;99.90;;;;;;5094805;28;20068;-75
2022/06/19 12:38:19;;;;;;;6.55;1.55;;;17.80;99.90;;;;;;5093590;28;20032;-75
2022/06/19 12:41:26;;;;;;;6.25;2.67;;;18.80;99.90;;;;;;5092487;28;20386;-75
2022/06/19 12:44:30;;;;;;;7.72;1.30;;;17.80;99.90;;;;;;5061475;28;20413;-75
2022/06/19 12:47:04;;;;;;;;;;;17.90;99.90;;;;;;5059825;28;20044;-75
2022/06/19 12:49:57;;;;;;;8.57;1.98;;;18.20;99.90;;;;;;5074834;28;20278;-74
2022/06/19 12:52:54;;;;;;;4.63;1.25;;;18.20;99.90;;;;;;5074756;28;20478;-75
2022/06/19 12:55:26;;;;;;;9.15;2.22;;;18.50;99.90;;;;;;5073230;28;20037;-75
2022/06/19 12:58:15;;;;;;;4.68;1.65;;;18.70;99.90;;;;;;5073250;28;20406;-75
2022/06/19 13:00:49;;;;;;;5.20;1.23;;;18.30;99.90;;;;;;5072336;28;20052;-74
2022/06/19 13:03:47;;;;;;;9.05;1.58;;;18.20;99.90;;;;;;5073253;28;20086;-75
2022/06/19 13:06:49;;;;;;;5.07;1.05;;;18.20;99.90;;;;;;5073124;28;20049;-75
2022/06/19 13:09:46;;;;;;;3.60;1.13;;;18.80;99.90;;;;;;5079171;28;20040;-74
2022/06/19 13:12:30;;;;;;;7.90;1.75;;;18.50;99.90;;;;;;5093469;28;20044;-75
2022/06/19 13:15:05;;;;;;;5.28;1.30;;;18.80;99.90;;;;;;5093567;28;20521;-75
2022/06/19 13:17:45;;;;;;;7.57;1.33;;;18.90;99.90;;;;;;5094769;28;20070;-74
2022/06/19 13:20:25;;;;;;;6.78;1.70;;;19.10;99.50;;;;;;5092597;28;20040;-75
2022/06/19 13:23:12;;;;;;;3.67;1.38;;;19.30;99.90;;;;;;5094512;28;20083;-75
2022/06/19 13:25:40;;;;;;;6.13;1.48;;;18.70;99.90;;;;;;5092769;28;20115;-75
2022/06/19 13:28:39;;;;;;;5.90;1.25;;;18.90;99.90;;;;;;5093059;28;20044;-74